createdAt,value
2018-12-15T00:00:20.649Z,7.65
2018-12-15T00:03:27.202Z,7.33
2018-12-15T00:06:33.764Z,10.05
2018-12-15T00:09:38.298Z,7.95
2018-12-15T00:12:42.838Z,8.48
2018-12-15T00:15:47.355Z,8.43
2018-12-15T00:18:52.389Z,8.20
2018-12-15T00:21:56.918Z,7.33
2018-12-15T00:25:01.439Z,8.23
2018-12-15T00:28:05.970Z,9.20
2018-12-15T00:31:11.822Z,6.72
2018-12-15T00:34:16.354Z,8.10
2018-12-15T00:37:20.874Z,7.22
2018-12-15T00:40:25.500Z,7.37
2018-12-15T00:43:30.023Z,8.00
2018-12-15T00:46:34.549Z,8.00
2018-12-15T00:49:39.066Z,6.87
2018-12-15T00:52:43.613Z,8.10
2018-12-15T00:55:48.541Z,7.77
2018-12-15T00:58:53.071Z,8.48
2018-12-15T01:01:57.594Z,8.00
2018-12-15T01:05:02.501Z,7.47
2018-12-15T01:08:07.411Z,7.87
2018-12-15T01:11:12.009Z,7.83
2018-12-15T01:14:16.805Z,7.72
2018-12-15T01:17:21.362Z,7.65
2018-12-15T01:20:26.226Z,7.78
2018-12-15T01:23:30.815Z,7.03
2018-12-15T01:26:35.334Z,8.28
2018-12-15T01:29:39.866Z,7.28
2018-12-15T01:32:44.435Z,7.08
2018-12-15T01:35:49.202Z,7.70
2018-12-15T01:38:53.766Z,7.87
2018-12-15T01:41:58.294Z,7.75
2018-12-15T01:45:02.816Z,6.90
2018-12-15T01:48:07.602Z,6.70
2018-12-15T01:51:12.170Z,6.35
2018-12-15T01:54:16.687Z,7.30
2018-12-15T01:57:21.340Z,6.67
2018-12-15T02:00:25.842Z,6.50
2018-12-15T02:03:30.504Z,9.00
2018-12-15T02:06:35.030Z,7.33
2018-12-15T02:09:39.670Z,6.78
2018-12-15T02:12:44.483Z,6.53
2018-12-15T02:15:49.007Z,6.70
2018-12-15T02:18:53.993Z,5.97
2018-12-15T02:21:58.551Z,5.40
2018-12-15T02:25:03.074Z,5.67
2018-12-15T02:28:07.601Z,8.13
2018-12-15T02:31:12.127Z,4.97
2018-12-15T02:34:16.658Z,11.38
2018-12-15T02:37:21.204Z,7.53
2018-12-15T02:40:25.707Z,6.17
2018-12-15T02:43:30.235Z,6.17
2018-12-15T02:46:34.771Z,5.97
2018-12-15T02:49:39.282Z,14.20
2018-12-15T02:52:43.925Z,5.83
2018-12-15T02:55:48.946Z,5.45
2018-12-15T02:58:53.510Z,6.07
2018-12-15T03:01:58.026Z,5.70
2018-12-15T03:05:02.539Z,4.90
2018-12-15T03:08:07.089Z,4.62
2018-12-15T03:11:11.938Z,4.85
2018-12-15T03:14:16.537Z,5.90
2018-12-15T03:17:21.337Z,5.15
2018-12-15T03:20:25.886Z,6.13
2018-12-15T03:23:30.411Z,5.57
2018-12-15T03:26:35.351Z,5.87
2018-12-15T03:29:39.890Z,6.10
2018-12-15T03:32:44.423Z,6.90
2018-12-15T03:35:48.943Z,5.23
2018-12-15T03:38:53.533Z,6.27
2018-12-15T03:41:58.388Z,5.37
2018-12-15T03:45:02.970Z,4.50
2018-12-15T03:48:07.270Z,5.03
2018-12-15T03:51:11.659Z,4.73
2018-12-15T03:54:16.645Z,5.23
2018-12-15T03:57:21.453Z,5.43
2018-12-15T04:00:27.425Z,5.13
2018-12-15T04:03:32.343Z,6.53
2018-12-15T04:06:37.557Z,5.67
2018-12-15T04:09:41.889Z,5.10
2018-12-15T04:12:46.286Z,6.10
2018-12-15T04:15:50.609Z,5.80
2018-12-15T04:18:55.638Z,7.27
2018-12-15T04:22:11.093Z,5.90
2018-12-15T04:25:16.059Z,5.20
2018-12-15T04:28:21.050Z,7.40
2018-12-15T04:31:25.826Z,6.10
2018-12-15T04:34:30.829Z,5.17
2018-12-15T04:37:35.663Z,6.80
2018-12-15T04:40:40.818Z,7.60
2018-12-15T04:43:46.017Z,6.40
2018-12-15T04:46:51.206Z,8.13
2018-12-15T04:49:56.693Z,6.27
2018-12-15T04:53:01.977Z,7.47
2018-12-15T04:56:06.982Z,6.23
2018-12-15T04:59:11.656Z,6.27
2018-12-15T05:02:16.810Z,6.63
2018-12-15T05:05:21.395Z,6.57
2018-12-15T05:08:26.574Z,6.50
2018-12-15T05:11:31.278Z,6.93
2018-12-15T05:14:36.193Z,5.83
2018-12-15T05:17:41.149Z,6.70
2018-12-15T05:20:46.049Z,6.93
2018-12-15T05:23:50.614Z,6.27
2018-12-15T05:26:55.367Z,7.40
2018-12-15T05:30:00.089Z,6.20
2018-12-15T05:33:05.345Z,7.30
2018-12-15T05:36:10.744Z,7.67
2018-12-15T05:39:15.729Z,8.20
2018-12-15T05:42:21.510Z,7.70
2018-12-15T05:45:26.303Z,7.47
2018-12-15T05:48:31.434Z,6.30
2018-12-15T05:51:36.181Z,7.87
2018-12-15T05:54:42.116Z,7.57
2018-12-15T05:57:47.038Z,8.33
2018-12-15T06:00:51.898Z,8.47
2018-12-15T06:03:56.626Z,7.83
2018-12-15T06:07:01.461Z,6.97
2018-12-15T06:10:06.390Z,7.87
2018-12-15T06:13:11.415Z,8.60
2018-12-15T06:16:16.383Z,10.27
2018-12-15T06:19:21.331Z,7.23
2018-12-15T06:22:26.922Z,7.50
2018-12-15T06:25:32.122Z,7.23
2018-12-15T06:28:36.522Z,7.70
2018-12-15T06:31:41.246Z,6.97
2018-12-15T06:34:45.982Z,6.67
2018-12-15T06:37:50.933Z,7.60
2018-12-15T06:40:55.747Z,7.03
2018-12-15T06:44:00.747Z,7.97
2018-12-15T06:47:05.933Z,7.20
2018-12-15T06:50:10.658Z,6.63
2018-12-15T06:53:15.386Z,7.77
2018-12-15T06:56:24.262Z,7.07
2018-12-15T06:59:29.114Z,7.80
2018-12-15T07:02:33.883Z,7.97
2018-12-15T07:05:38.740Z,7.00
2018-12-15T07:08:43.340Z,7.60
2018-12-15T07:11:47.990Z,8.47
2018-12-15T07:14:52.611Z,6.63
2018-12-15T07:17:57.335Z,6.63
2018-12-15T07:21:02.446Z,6.70
2018-12-15T07:24:07.782Z,6.67
2018-12-15T07:27:12.693Z,7.42
2018-12-15T07:30:17.598Z,8.00
2018-12-15T07:33:22.316Z,6.57
2018-12-15T07:36:27.732Z,7.80
2018-12-15T07:39:33.320Z,7.07
2018-12-15T07:42:37.618Z,6.63
2018-12-15T07:45:41.977Z,10.20
2018-12-15T07:48:51.305Z,6.63
2018-12-15T07:51:52.715Z,7.97
2018-12-15T07:54:57.033Z,7.97
2018-12-15T07:58:01.349Z,8.20
2018-12-15T08:01:05.820Z,11.67
2018-12-15T08:04:10.114Z,9.33
2018-12-15T08:07:14.683Z,7.67
2018-12-15T08:10:25.412Z,7.72
2018-12-15T08:13:32.452Z,9.50
2018-12-15T08:16:36.859Z,7.75
2018-12-15T08:19:41.297Z,7.33
2018-12-15T08:22:45.602Z,7.93
2018-12-15T08:25:50.246Z,7.40
2018-12-15T08:28:54.557Z,7.77
2018-12-15T08:31:58.902Z,7.13
2018-12-15T08:35:03.679Z,7.93
2018-12-15T08:38:07.970Z,7.70
2018-12-15T08:41:13.223Z,6.25
2018-12-15T08:44:17.581Z,6.65
2018-12-15T08:47:21.961Z,7.10
2018-12-15T08:50:26.265Z,6.47
2018-12-15T08:53:30.757Z,6.62
2018-12-15T08:56:35.151Z,6.92
2018-12-15T08:59:39.513Z,6.22
2018-12-15T09:02:43.847Z,6.67
2018-12-15T09:05:48.277Z,7.33
2018-12-15T09:08:52.581Z,6.65
2018-12-15T09:11:57.246Z,6.20
2018-12-15T09:15:01.776Z,6.67
2018-12-15T09:18:06.295Z,6.30
2018-12-15T09:21:10.593Z,6.55
2018-12-15T09:24:15.217Z,6.92
2018-12-15T09:27:19.717Z,6.00
2018-12-15T09:30:24.035Z,5.75
2018-12-15T09:33:28.327Z,7.25
2018-12-15T09:36:32.762Z,6.83
2018-12-15T09:39:37.081Z,5.90
2018-12-15T09:42:41.469Z,5.92
2018-12-15T09:45:45.851Z,7.25
2018-12-15T09:48:50.434Z,6.50
2018-12-15T09:51:55.021Z,6.17
2018-12-15T09:54:59.573Z,8.00
2018-12-15T09:58:04.518Z,5.70
2018-12-15T10:01:09.358Z,6.33
2018-12-15T10:04:13.855Z,5.92
2018-12-15T10:07:18.435Z,6.58
2018-12-15T10:10:23.013Z,6.30
2018-12-15T10:13:27.573Z,6.72
2018-12-15T10:16:32.510Z,6.78
2018-12-15T10:19:37.234Z,6.45
2018-12-15T10:22:42.038Z,6.22
2018-12-15T10:25:46.581Z,6.70
2018-12-15T10:28:51.178Z,5.60
2018-12-15T10:32:00.818Z,5.78
2018-12-15T10:35:05.881Z,7.33
2018-12-15T10:38:10.535Z,6.85
2018-12-15T10:41:15.118Z,5.80
2018-12-15T10:44:19.672Z,5.95
2018-12-15T10:47:24.270Z,6.78
2018-12-15T10:50:28.869Z,6.58
2018-12-15T10:53:33.742Z,4.78
2018-12-15T10:56:39.010Z,5.85
2018-12-15T10:59:43.502Z,6.15
2018-12-15T11:02:48.067Z,6.12
2018-12-15T11:05:53.704Z,16.77
2018-12-15T11:08:58.215Z,36.30
2018-12-15T11:12:03.458Z,14.87
2018-12-15T11:15:08.903Z,16.65
2018-12-15T11:18:13.577Z,16.62
2018-12-15T11:21:19.079Z,18.32
2018-12-15T11:24:23.757Z,18.50
2018-12-15T11:27:28.357Z,17.40
2018-12-15T11:30:33.153Z,15.60
2018-12-15T11:33:37.807Z,15.30
2018-12-15T11:36:42.373Z,15.50
2018-12-15T11:39:47.882Z,11.80
2018-12-15T11:42:52.726Z,12.75
2018-12-15T11:45:57.238Z,12.40
2018-12-15T11:49:01.814Z,10.03
2018-12-15T11:52:07.418Z,9.95
2018-12-15T11:55:11.982Z,10.23
2018-12-15T11:58:17.613Z,10.65
2018-12-15T12:01:23.398Z,9.78
2018-12-15T12:04:28.498Z,9.40
2018-12-15T12:07:33.789Z,10.10
2018-12-15T12:10:38.678Z,9.38
2018-12-15T12:13:43.334Z,12.25
2018-12-15T12:16:47.782Z,9.08
2018-12-15T12:19:52.614Z,11.38
2018-12-15T12:22:57.281Z,11.43
2018-12-15T12:26:03.890Z,9.63
2018-12-15T12:29:09.065Z,10.98
2018-12-15T12:32:14.078Z,10.60
2018-12-15T12:35:18.671Z,14.10
2018-12-15T12:38:23.630Z,16.17
2018-12-15T12:41:28.134Z,23.45
2018-12-15T12:44:32.673Z,18.20
2018-12-15T12:47:37.887Z,13.70
2018-12-15T12:50:42.425Z,11.33
2018-12-15T12:53:46.961Z,11.55
2018-12-15T12:56:51.576Z,11.43
2018-12-15T12:59:56.187Z,10.85
2018-12-15T13:03:00.806Z,9.68
2018-12-15T13:06:07.002Z,10.53
2018-12-15T13:09:11.642Z,11.60
2018-12-15T13:12:16.173Z,10.63
2018-12-15T13:15:20.682Z,10.28
2018-12-15T13:18:25.225Z,12.80
2018-12-15T13:21:29.770Z,9.63
2018-12-15T13:24:34.382Z,9.50
2018-12-15T13:27:39.557Z,9.38
2018-12-15T13:30:44.133Z,9.20
2018-12-15T13:33:48.661Z,9.40
2018-12-15T13:36:53.847Z,14.67
2018-12-15T13:39:58.946Z,10.25
2018-12-15T13:43:03.830Z,12.28
2018-12-15T13:46:08.503Z,10.23
2018-12-15T13:49:13.041Z,11.25
2018-12-15T13:52:17.569Z,14.07
2018-12-15T13:55:22.212Z,12.98
2018-12-15T13:58:26.725Z,29.65
2018-12-15T14:01:31.242Z,37.75
2018-12-15T14:04:36.163Z,41.10
2018-12-15T14:07:41.656Z,54.88
2018-12-15T14:10:46.669Z,61.60
2018-12-15T14:13:51.195Z,60.52
2018-12-15T14:16:56.231Z,49.55
2018-12-15T14:20:00.758Z,54.90
2018-12-15T14:23:05.290Z,51.98
2018-12-15T14:26:09.822Z,39.03
2018-12-15T14:29:14.350Z,40.30
2018-12-15T14:32:18.863Z,30.20
2018-12-15T14:35:23.414Z,28.65
2018-12-15T14:38:27.922Z,38.78
2018-12-15T14:41:32.860Z,26.05
2018-12-15T14:44:37.542Z,27.87
2018-12-15T14:47:42.124Z,30.05
2018-12-15T14:50:46.635Z,30.80
2018-12-15T14:53:51.165Z,28.32
2018-12-15T14:56:56.123Z,24.87
2018-12-15T15:00:00.622Z,26.80
2018-12-15T15:03:05.250Z,21.70
2018-12-15T15:06:09.779Z,23.02
2018-12-15T15:09:14.325Z,23.77
2018-12-15T15:12:18.846Z,19.98
2018-12-15T15:15:24.288Z,20.12
2018-12-15T15:18:28.802Z,20.40
2018-12-15T15:21:33.561Z,21.17
2018-12-15T15:24:38.086Z,23.15
2018-12-15T15:27:42.630Z,20.68
2018-12-15T15:30:47.522Z,23.52
2018-12-15T15:33:52.055Z,21.25
2018-12-15T15:36:56.700Z,23.52
2018-12-15T15:40:02.091Z,20.23
2018-12-15T15:43:06.949Z,18.60
2018-12-15T15:46:11.832Z,25.25
2018-12-15T15:49:16.337Z,27.22
2018-12-15T15:52:20.969Z,19.15
2018-12-15T15:55:26.021Z,19.25
2018-12-15T15:58:30.538Z,39.55
2018-12-15T16:01:35.066Z,32.48
2018-12-15T16:04:39.990Z,24.67
2018-12-15T16:07:44.537Z,21.87
2018-12-15T16:10:49.062Z,18.35
2018-12-15T16:13:53.586Z,17.87
2018-12-15T16:16:58.488Z,20.30
2018-12-15T16:20:03.238Z,19.48
2018-12-15T16:23:07.909Z,18.17
2018-12-15T16:26:12.526Z,20.52
2018-12-15T16:29:17.158Z,14.53
2018-12-15T16:32:21.770Z,14.18
2018-12-15T16:35:26.434Z,14.87
2018-12-15T16:38:31.030Z,13.98
2018-12-15T16:41:42.054Z,14.98
2018-12-15T16:44:42.223Z,15.93
2018-12-15T16:47:46.821Z,16.12
2018-12-15T16:50:51.369Z,15.63
2018-12-15T16:53:55.941Z,15.80
2018-12-15T16:57:00.721Z,16.10
2018-12-15T17:00:07.849Z,14.85
2018-12-15T17:03:12.442Z,13.80
2018-12-15T17:06:17.618Z,15.95
2018-12-15T17:09:22.209Z,15.60
2018-12-15T17:12:26.802Z,17.07
2018-12-15T17:15:31.382Z,15.90
2018-12-15T17:18:36.093Z,17.37
2018-12-15T17:21:40.626Z,14.95
2018-12-15T17:24:45.925Z,14.53
2018-12-15T17:27:52.116Z,14.40
2018-12-15T17:30:56.805Z,12.25
2018-12-15T17:34:01.424Z,12.43
2018-12-15T17:37:07.004Z,15.98
2018-12-15T17:40:12.054Z,19.80
2018-12-15T17:43:16.680Z,20.48
2018-12-15T17:46:21.234Z,17.62
2018-12-15T17:49:25.849Z,21.42
2018-12-15T17:52:30.542Z,12.50
2018-12-15T17:55:35.198Z,13.93
2018-12-15T17:58:39.869Z,17.05
2018-12-15T18:01:44.530Z,12.28
2018-12-15T18:04:49.213Z,13.13
2018-12-15T18:07:53.869Z,13.40
2018-12-15T18:10:58.490Z,12.00
2018-12-15T18:14:03.145Z,16.60
2018-12-15T18:17:08.225Z,12.80
2018-12-15T18:20:13.416Z,12.53
2018-12-15T18:23:17.965Z,12.28
2018-12-15T18:26:22.698Z,12.15
2018-12-15T18:29:27.290Z,13.05
2018-12-15T18:32:31.845Z,11.95
2018-12-15T18:35:36.950Z,15.25
2018-12-15T18:38:42.026Z,11.67
2018-12-15T18:41:46.622Z,13.18
2018-12-15T18:44:51.379Z,12.20
2018-12-15T18:47:56.506Z,11.78
2018-12-15T18:51:01.158Z,12.65
2018-12-15T18:54:05.857Z,12.40
2018-12-15T18:57:10.862Z,12.33
2018-12-15T19:00:16.780Z,12.93
2018-12-15T19:03:23.218Z,12.73
2018-12-15T19:06:27.857Z,11.75
2018-12-15T19:09:32.798Z,14.60
2018-12-15T19:12:37.415Z,12.80
2018-12-15T19:15:42.125Z,12.75
2018-12-15T19:18:46.873Z,12.95
2018-12-15T19:21:51.725Z,12.45
2018-12-15T19:24:56.390Z,12.13
2018-12-15T19:28:01.162Z,11.33
2018-12-15T19:31:05.740Z,12.80
2018-12-15T19:34:10.341Z,11.70
2018-12-15T19:37:15.242Z,13.75
2018-12-15T19:40:19.937Z,12.90
2018-12-15T19:43:24.813Z,12.98
2018-12-15T19:46:29.554Z,13.60
2018-12-15T19:49:34.086Z,15.23
2018-12-15T19:52:38.715Z,15.25
2018-12-15T19:55:43.295Z,19.35
2018-12-15T19:58:47.863Z,13.58
2018-12-15T20:01:52.393Z,12.15
2018-12-15T20:04:56.917Z,11.97
2018-12-15T20:08:01.759Z,14.95
2018-12-15T20:11:06.482Z,13.48
2018-12-15T20:14:12.137Z,13.00
2018-12-15T20:17:16.849Z,15.90
2018-12-15T20:20:21.494Z,11.73
2018-12-15T20:23:26.123Z,13.18
2018-12-15T20:26:30.754Z,12.98
2018-12-15T20:29:35.574Z,15.15
2018-12-15T20:32:40.178Z,13.10
2018-12-15T20:35:44.773Z,14.05
2018-12-15T20:38:49.373Z,15.50
2018-12-15T20:41:53.930Z,15.23
2018-12-15T20:44:58.525Z,14.03
2018-12-15T20:48:03.243Z,13.30
2018-12-15T20:51:07.974Z,16.32
2018-12-15T20:54:21.788Z,16.10
2018-12-15T20:57:26.363Z,15.03
2018-12-15T21:00:31.189Z,17.17
2018-12-15T21:03:35.712Z,14.58
2018-12-15T21:06:40.250Z,14.90
2018-12-15T21:09:44.749Z,19.30
2018-12-15T21:12:49.298Z,18.15
2018-12-15T21:15:57.277Z,16.62
2018-12-15T21:19:02.042Z,16.50
2018-12-15T21:22:10.443Z,15.75
2018-12-15T21:25:15.085Z,16.90
2018-12-15T21:28:19.810Z,17.15
2018-12-15T21:31:24.429Z,16.70
2018-12-15T21:34:28.973Z,15.80
2018-12-15T21:37:33.494Z,15.00
2018-12-15T21:40:38.009Z,18.48
2018-12-15T21:43:42.550Z,16.80
2018-12-15T21:46:47.335Z,15.32
2018-12-15T21:49:52.373Z,14.00
2018-12-15T21:52:57.010Z,18.92
2018-12-15T21:56:02.234Z,14.38
2018-12-15T21:59:06.800Z,15.88
2018-12-15T22:02:11.494Z,14.80
2018-12-15T22:05:16.630Z,15.65
2018-12-15T22:08:21.278Z,16.93
2018-12-15T22:11:26.125Z,15.38
2018-12-15T22:14:30.730Z,17.42
2018-12-15T22:17:35.262Z,16.15
2018-12-15T22:20:40.250Z,16.62
2018-12-15T22:23:44.805Z,15.78
2018-12-15T22:26:49.346Z,16.30
2018-12-15T22:29:54.353Z,17.30
2018-12-15T22:32:58.919Z,15.70
2018-12-15T22:36:03.994Z,17.67
2018-12-15T22:39:08.885Z,17.90
2018-12-15T22:42:13.455Z,20.33
2018-12-15T22:45:18.039Z,20.95
2018-12-15T22:48:22.614Z,21.20
2018-12-15T22:51:27.202Z,22.52
2018-12-15T22:54:31.842Z,19.90
2018-12-15T22:57:37.262Z,21.07
2018-12-15T23:00:47.766Z,21.07
2018-12-15T23:03:55.049Z,20.90
2018-12-15T23:07:00.046Z,20.82
2018-12-15T23:10:05.785Z,20.40
2018-12-15T23:13:10.707Z,20.68
2018-12-15T23:16:15.334Z,21.10
2018-12-15T23:19:20.017Z,21.33
2018-12-15T23:22:24.582Z,20.35
2018-12-15T23:25:29.174Z,20.87
2018-12-15T23:28:33.872Z,20.05
2018-12-15T23:31:38.466Z,18.90
2018-12-15T23:34:43.082Z,17.87
2018-12-15T23:37:47.689Z,21.48
2018-12-15T23:40:52.249Z,17.55
2018-12-15T23:43:56.839Z,18.93
2018-12-15T23:47:01.422Z,18.83
2018-12-15T23:50:06.444Z,20.23
2018-12-15T23:53:11.066Z,20.55
2018-12-15T23:56:15.891Z,17.92
2018-12-15T23:59:20.523Z,20.37
